createdAt,value
2018-11-01T00:01:10.015Z,6.13
2018-11-01T00:03:38.476Z,6.07
2018-11-01T00:06:07.041Z,6.10
2018-11-01T00:08:35.537Z,5.70
2018-11-01T00:11:05.376Z,6.50
2018-11-01T00:13:33.841Z,6.87
2018-11-01T00:16:02.487Z,6.63
2018-11-01T00:18:31.000Z,6.23
2018-11-01T00:20:59.529Z,6.73
2018-11-01T00:23:27.976Z,6.37
2018-11-01T00:25:56.912Z,7.70
2018-11-01T00:28:25.422Z,7.33
2018-11-01T00:30:53.883Z,6.87
2018-11-01T00:33:22.391Z,6.67
2018-11-01T00:35:50.919Z,6.83
2018-11-01T00:38:19.415Z,7.13
2018-11-01T00:40:48.351Z,11.90
2018-11-01T00:43:16.983Z,10.80
2018-11-01T00:45:45.513Z,10.53
2018-11-01T00:48:14.203Z,9.33
2018-11-01T00:50:43.519Z,7.60
2018-11-01T00:53:12.220Z,7.37
2018-11-01T00:55:41.437Z,8.13
2018-11-01T00:58:09.922Z,6.90
2018-11-01T01:00:38.742Z,6.43
2018-11-01T01:03:07.396Z,7.00
2018-11-01T01:05:35.819Z,6.63
2018-11-01T01:08:04.553Z,6.30
2018-11-01T01:10:33.116Z,6.37
2018-11-01T01:13:01.565Z,7.70
2018-11-01T01:15:30.039Z,7.43
2018-11-01T01:17:58.512Z,6.77
2018-11-01T01:20:27.007Z,7.33
2018-11-01T01:22:55.894Z,7.20
2018-11-01T01:25:26.585Z,6.57
2018-11-01T01:27:55.046Z,6.77
2018-11-01T01:30:23.625Z,7.10
2018-11-01T01:32:52.101Z,6.90
2018-11-01T01:35:20.625Z,7.07
2018-11-01T01:37:49.104Z,6.90
2018-11-01T01:40:17.572Z,7.37
2018-11-01T01:42:51.916Z,7.37
2018-11-01T01:45:20.822Z,6.70
2018-11-01T01:47:49.407Z,7.30
2018-11-01T01:50:18.697Z,6.10
2018-11-01T01:52:47.570Z,6.67
2018-11-01T01:55:16.790Z,6.60
2018-11-01T01:57:45.272Z,6.87
2018-11-01T02:00:15.498Z,6.60
2018-11-01T02:02:46.385Z,6.73
2018-11-01T02:05:14.868Z,6.90
2018-11-01T02:07:43.319Z,7.30
2018-11-01T02:10:14.244Z,6.73
2018-11-01T02:12:42.731Z,6.13
2018-11-01T02:15:13.452Z,5.60
2018-11-01T02:17:42.471Z,6.53
2018-11-01T02:20:12.607Z,6.63
2018-11-01T02:22:41.855Z,6.17
2018-11-01T02:25:10.635Z,6.87
2018-11-01T02:27:44.304Z,6.20
2018-11-01T02:30:14.540Z,5.87
2018-11-01T02:32:43.608Z,6.20
2018-11-01T02:35:14.020Z,6.73
2018-11-01T02:37:42.857Z,7.03
2018-11-01T02:40:12.904Z,6.27
2018-11-01T02:42:42.038Z,6.03
2018-11-01T02:45:11.606Z,6.07
2018-11-01T02:47:41.086Z,6.20
2018-11-01T02:50:10.603Z,6.97
2018-11-01T02:52:39.556Z,6.43
2018-11-01T02:55:08.919Z,5.70
2018-11-01T02:57:37.381Z,6.33
2018-11-01T03:00:10.264Z,6.43
2018-11-01T03:02:38.707Z,5.43
2018-11-01T03:05:07.970Z,5.60
2018-11-01T03:07:36.473Z,5.67
2018-11-01T03:10:05.928Z,6.57
2018-11-01T03:12:34.352Z,5.40
2018-11-01T03:15:02.851Z,5.70
2018-11-01T03:17:31.292Z,5.83
2018-11-01T03:19:59.811Z,6.07
2018-11-01T03:22:28.248Z,5.13
2018-11-01T03:24:56.810Z,5.17
2018-11-01T03:27:25.987Z,5.53
2018-11-01T03:29:54.555Z,5.50
2018-11-01T03:32:23.559Z,6.07
2018-11-01T03:34:52.023Z,5.37
2018-11-01T03:37:20.470Z,5.20
2018-11-01T03:39:48.975Z,5.57
2018-11-01T03:42:17.454Z,5.53
2018-11-01T03:44:46.127Z,5.50
2018-11-01T03:47:14.664Z,6.03
2018-11-01T03:49:43.143Z,4.97
2018-11-01T03:52:11.682Z,6.37
2018-11-01T03:54:40.330Z,5.77
2018-11-01T03:57:08.796Z,8.43
2018-11-01T03:59:37.260Z,5.30
2018-11-01T04:02:06.176Z,5.50
2018-11-01T04:04:34.764Z,5.97
2018-11-01T04:07:03.322Z,5.33
2018-11-01T04:09:33.057Z,5.90
2018-11-01T04:12:01.637Z,6.47
2018-11-01T04:14:30.291Z,6.03
2018-11-01T04:16:58.798Z,6.27
2018-11-01T04:19:27.524Z,6.23
2018-11-01T04:22:01.354Z,5.63
2018-11-01T04:24:29.810Z,6.07
2018-11-01T04:26:58.236Z,5.30
2018-11-01T04:29:27.088Z,5.60
2018-11-01T04:31:55.555Z,6.10
2018-11-01T04:34:24.531Z,5.13
2018-11-01T04:36:52.960Z,5.50
2018-11-01T04:39:21.493Z,5.60
2018-11-01T04:41:50.035Z,5.97
2018-11-01T04:44:18.513Z,5.33
2018-11-01T04:46:47.169Z,5.50
2018-11-01T04:49:16.018Z,5.20
2018-11-01T04:51:44.763Z,5.03
2018-11-01T04:54:13.591Z,5.90
2018-11-01T04:56:42.103Z,6.00
2018-11-01T04:59:10.572Z,6.13
2018-11-01T05:01:39.226Z,5.97
2018-11-01T05:04:07.679Z,5.40
2018-11-01T05:06:36.123Z,6.13
2018-11-01T05:09:05.506Z,6.20
2018-11-01T05:11:34.017Z,6.30
2018-11-01T05:14:02.439Z,6.37
2018-11-01T05:16:32.891Z,6.57
2018-11-01T05:19:16.802Z,7.10
2018-11-01T05:21:46.231Z,6.97
2018-11-01T05:24:14.680Z,6.73
2018-11-01T05:26:43.219Z,5.83
2018-11-01T05:29:12.248Z,5.93
2018-11-01T05:31:40.772Z,5.33
2018-11-01T05:34:09.321Z,6.17
2018-11-01T05:36:37.804Z,6.67
2018-11-01T05:39:09.609Z,8.40
2018-11-01T05:41:38.129Z,10.13
2018-11-01T05:44:06.598Z,9.23
2018-11-01T05:46:35.097Z,8.80
2018-11-01T05:49:06.596Z,9.30
2018-11-01T05:51:35.114Z,8.47
2018-11-01T05:54:03.881Z,8.10
2018-11-01T05:56:32.347Z,7.97
2018-11-01T05:59:00.778Z,8.67
2018-11-01T06:01:32.823Z,6.60
2018-11-01T06:04:01.669Z,6.60
2018-11-01T06:06:30.172Z,6.43
2018-11-01T06:08:59.864Z,6.33
2018-11-01T06:11:28.367Z,6.40
2018-11-01T06:13:56.822Z,6.10
2018-11-01T06:16:25.306Z,5.93
2018-11-01T06:18:53.865Z,5.97
2018-11-01T06:21:22.284Z,6.20
2018-11-01T06:23:50.769Z,5.70
2018-11-01T06:26:19.211Z,6.87
2018-11-01T06:28:47.738Z,5.63
2018-11-01T06:31:16.276Z,6.80
2018-11-01T06:33:45.107Z,5.80
2018-11-01T06:36:15.236Z,6.20
2018-11-01T06:38:44.307Z,5.50
2018-11-01T06:41:12.772Z,6.10
2018-11-01T06:43:41.322Z,6.07
2018-11-01T06:46:10.320Z,5.47
2018-11-01T06:48:39.234Z,5.60
2018-11-01T06:51:07.969Z,5.73
2018-11-01T06:53:36.448Z,5.60
2018-11-01T06:56:05.256Z,5.20
2018-11-01T06:58:34.624Z,5.30
2018-11-01T07:01:03.009Z,5.23
2018-11-01T07:03:31.529Z,6.17
2018-11-01T07:06:00.216Z,6.13
2018-11-01T07:08:28.668Z,6.83
2018-11-01T07:10:57.175Z,7.10
2018-11-01T07:13:25.671Z,8.83
2018-11-01T07:15:54.903Z,8.67
2018-11-01T07:18:23.471Z,7.10
2018-11-01T07:20:51.988Z,7.43
2018-11-01T07:23:20.675Z,6.93
2018-11-01T07:25:49.310Z,8.20
2018-11-01T07:28:17.912Z,9.47
2018-11-01T07:30:46.572Z,9.07
2018-11-01T07:33:15.152Z,7.13
2018-11-01T07:35:43.779Z,7.87
2018-11-01T07:38:12.932Z,7.70
2018-11-01T07:40:41.592Z,6.97
2018-11-01T07:43:10.120Z,6.10
2018-11-01T07:45:38.703Z,6.43
2018-11-01T07:48:07.464Z,6.60
2018-11-01T07:50:35.980Z,7.33
2018-11-01T07:53:05.330Z,7.10
2018-11-01T07:55:33.773Z,7.30
2018-11-01T07:58:02.274Z,7.93
2018-11-01T08:00:31.032Z,7.97
2018-11-01T08:02:59.900Z,8.37
2018-11-01T08:05:28.462Z,7.83
2018-11-01T08:07:57.179Z,7.07
2018-11-01T08:10:25.871Z,8.17
2018-11-01T08:12:54.457Z,10.10
2018-11-01T08:15:22.911Z,12.90
2018-11-01T08:17:52.088Z,13.03
2018-11-01T08:20:20.968Z,13.80
2018-11-01T08:22:49.303Z,13.03
2018-11-01T08:25:17.832Z,12.77
2018-11-01T08:27:46.354Z,12.43
2018-11-01T08:30:16.296Z,11.20
2018-11-01T08:32:44.808Z,11.37
2018-11-01T08:35:13.582Z,10.83
2018-11-01T08:37:43.145Z,10.10
2018-11-01T08:40:12.309Z,9.60
2018-11-01T08:42:41.286Z,9.20
2018-11-01T08:45:11.748Z,8.40
2018-11-01T08:47:40.819Z,7.77
2018-11-01T08:50:10.989Z,8.53
2018-11-01T08:52:40.022Z,8.60
2018-11-01T08:55:09.172Z,8.03
2018-11-01T08:57:37.679Z,10.03
2018-11-01T09:00:07.644Z,8.13
2018-11-01T09:02:36.071Z,9.93
2018-11-01T09:05:04.595Z,9.80
2018-11-01T09:07:33.192Z,8.83
2018-11-01T09:10:01.698Z,7.53
2018-11-01T09:12:30.243Z,8.43
2018-11-01T09:14:58.657Z,11.87
2018-11-01T09:17:27.115Z,12.73
2018-11-01T09:19:55.628Z,22.93
2018-11-01T09:22:24.359Z,12.33
2018-11-01T09:24:52.841Z,8.10
2018-11-01T09:27:21.280Z,7.57
2018-11-01T09:29:49.769Z,6.87
2018-11-01T09:32:18.189Z,6.60
2018-11-01T09:34:46.797Z,10.80
2018-11-01T09:37:15.254Z,9.87
2018-11-01T09:39:44.315Z,11.13
2018-11-01T09:42:12.792Z,8.73
2018-11-01T09:44:42.074Z,7.50
2018-11-01T09:47:10.962Z,7.67
2018-11-01T09:49:39.280Z,10.27
2018-11-01T09:52:07.915Z,7.90
2018-11-01T09:54:36.400Z,8.47
2018-11-01T09:57:05.528Z,7.63
2018-11-01T09:59:34.026Z,7.90
2018-11-01T10:02:04.045Z,7.93
2018-11-01T10:04:32.573Z,11.13
2018-11-01T10:07:01.119Z,8.97
2018-11-01T10:09:29.497Z,16.93
2018-11-01T10:11:57.946Z,12.93
2018-11-01T10:14:26.434Z,72.13
2018-11-01T10:16:55.817Z,24.97
2018-11-01T10:19:24.619Z,10.60
2018-11-01T10:21:53.277Z,10.67
2018-11-01T10:24:21.715Z,7.50
2018-11-01T10:26:50.449Z,8.33
2018-11-01T10:29:18.888Z,7.87
2018-11-01T10:31:47.397Z,8.20
2018-11-01T10:34:15.935Z,7.97
2018-11-01T10:36:44.434Z,7.30
2018-11-01T10:39:12.868Z,7.20
2018-11-01T10:41:41.361Z,7.27
2018-11-01T10:44:10.495Z,7.27
2018-11-01T10:46:38.958Z,7.40
2018-11-01T10:49:07.405Z,7.80
2018-11-01T10:51:36.219Z,11.60
2018-11-01T10:54:05.817Z,9.93
2018-11-01T10:56:34.557Z,8.33
2018-11-01T10:59:03.388Z,7.37
2018-11-01T11:01:42.724Z,7.97
2018-11-01T11:04:11.562Z,7.37
2018-11-01T11:06:41.367Z,11.70
2018-11-01T11:09:10.296Z,9.80
2018-11-01T11:11:39.570Z,8.63
2018-11-01T11:14:09.092Z,12.27
2018-11-01T11:16:38.306Z,8.27
2018-11-01T11:19:07.510Z,9.03
2018-11-01T11:21:36.230Z,8.33
2018-11-01T11:24:05.465Z,8.33
2018-11-01T11:26:33.910Z,23.07
2018-11-01T11:29:03.166Z,14.63
2018-11-01T11:31:32.334Z,17.80
2018-11-01T11:34:01.543Z,21.73
2018-11-01T11:36:30.060Z,13.17
2018-11-01T11:38:58.579Z,8.70
2018-11-01T11:41:27.083Z,9.40
2018-11-01T11:43:55.543Z,15.97
2018-11-01T11:46:24.844Z,10.33
2018-11-01T11:48:54.724Z,9.47
2018-11-01T11:51:23.229Z,10.13
2018-11-01T11:53:51.708Z,10.23
2018-11-01T11:56:20.911Z,11.67
2018-11-01T11:58:49.450Z,9.87
2018-11-01T12:01:17.902Z,9.53
2018-11-01T12:03:46.376Z,6.30
2018-11-01T12:06:14.959Z,7.57
2018-11-01T12:08:43.371Z,8.50
2018-11-01T12:11:12.023Z,8.60
2018-11-01T12:13:40.627Z,8.07
2018-11-01T12:16:09.128Z,39.33
2018-11-01T12:18:37.680Z,31.30
2018-11-01T12:21:06.126Z,8.83
2018-11-01T12:23:34.588Z,8.37
2018-11-01T12:26:03.231Z,7.90
2018-11-01T12:28:32.275Z,8.50
2018-11-01T12:31:00.694Z,8.83
2018-11-01T12:33:29.799Z,10.10
2018-11-01T12:35:59.009Z,9.37
2018-11-01T12:38:27.606Z,12.17
2018-11-01T12:40:57.008Z,16.37
2018-11-01T12:43:25.526Z,11.03
2018-11-01T12:45:54.179Z,10.13
2018-11-01T12:48:22.655Z,9.07
2018-11-01T12:50:51.126Z,9.00
2018-11-01T12:53:19.681Z,7.97
2018-11-01T12:55:48.108Z,8.77
2018-11-01T12:58:16.623Z,8.67
2018-11-01T13:00:45.742Z,8.60
2018-11-01T13:03:15.265Z,9.10
2018-11-01T13:05:44.554Z,7.70
2018-11-01T13:08:13.024Z,8.77
2018-11-01T13:10:42.099Z,8.23
2018-11-01T13:13:10.589Z,7.70
2018-11-01T13:15:39.079Z,9.93
2018-11-01T13:18:07.592Z,11.37
2018-11-01T13:20:36.063Z,10.27
2018-11-01T13:23:04.539Z,9.30
2018-11-01T13:25:33.064Z,9.27
2018-11-01T13:28:01.571Z,8.63
2018-11-01T13:30:30.057Z,9.20
2018-11-01T13:32:58.753Z,8.67
2018-11-01T13:35:27.303Z,8.37
2018-11-01T13:37:55.717Z,9.10
2018-11-01T13:40:25.149Z,19.90
2018-11-01T13:42:53.340Z,11.77
2018-11-01T13:45:21.849Z,13.63
2018-11-01T13:47:50.358Z,8.20
2018-11-01T13:50:18.908Z,9.67
2018-11-01T13:52:47.343Z,9.90
2018-11-01T13:55:15.867Z,9.70
2018-11-01T13:57:45.388Z,9.30
2018-11-01T14:00:14.858Z,8.33
2018-11-01T14:02:43.818Z,6.90
2018-11-01T14:05:13.659Z,7.60
2018-11-01T14:07:42.856Z,7.07
2018-11-01T14:10:14.786Z,7.80
2018-11-01T14:12:43.649Z,7.80
2018-11-01T14:15:12.921Z,6.83
2018-11-01T14:17:42.021Z,7.70
2018-11-01T14:20:12.312Z,8.63
2018-11-01T14:22:41.401Z,7.87
2018-11-01T14:25:13.150Z,8.03
2018-11-01T14:27:41.902Z,8.10
2018-11-01T14:30:13.053Z,8.40
2018-11-01T14:32:41.760Z,8.70
2018-11-01T14:35:11.692Z,8.77
2018-11-01T14:37:40.338Z,8.83
2018-11-01T14:40:10.926Z,8.63
2018-11-01T14:42:40.164Z,9.03
2018-11-01T14:45:09.460Z,9.00
2018-11-01T14:47:38.765Z,8.93
2018-11-01T14:50:07.949Z,9.00
2018-11-01T14:52:36.795Z,9.17
2018-11-01T14:55:06.188Z,9.40
2018-11-01T14:57:34.832Z,8.83
2018-11-01T15:00:02.282Z,9.93
2018-11-01T15:02:30.804Z,10.83
2018-11-01T15:04:59.310Z,10.50
2018-11-01T15:07:27.805Z,9.93
2018-11-01T15:09:56.307Z,11.57
2018-11-01T15:12:26.041Z,9.90
2018-11-01T15:14:54.473Z,10.90
2018-11-01T15:17:23.671Z,10.20
2018-11-01T15:19:52.178Z,10.07
2018-11-01T15:22:20.684Z,11.23
2018-11-01T15:24:49.216Z,10.60
2018-11-01T15:27:19.978Z,10.93
2018-11-01T15:29:48.733Z,11.57
2018-11-01T15:32:22.288Z,11.03
2018-11-01T15:34:51.073Z,10.53
2018-11-01T15:37:19.638Z,11.07
2018-11-01T15:39:48.136Z,11.00
2018-11-01T15:42:16.696Z,9.87
2018-11-01T15:44:46.032Z,12.27
2018-11-01T15:47:14.574Z,11.80
2018-11-01T15:49:43.241Z,11.37
2018-11-01T15:52:11.890Z,10.33
2018-11-01T15:54:41.265Z,9.70
2018-11-01T15:57:09.878Z,10.30
2018-11-01T15:59:38.509Z,9.03
2018-11-01T16:02:07.689Z,9.60
2018-11-01T16:04:36.166Z,9.00
2018-11-01T16:07:04.673Z,9.77
2018-11-01T16:09:33.699Z,8.27
2018-11-01T16:12:02.240Z,9.47
2018-11-01T16:14:30.678Z,8.87
2018-11-01T16:16:59.599Z,7.80
2018-11-01T16:19:28.148Z,7.47
2018-11-01T16:21:56.552Z,10.13
2018-11-01T16:24:25.090Z,7.87
2018-11-01T16:26:53.704Z,8.43
2018-11-01T16:29:22.199Z,14.27
2018-11-01T16:31:50.690Z,13.50
2018-11-01T16:34:19.504Z,23.60
2018-11-01T16:36:48.108Z,18.63
2018-11-01T16:39:16.502Z,17.70
2018-11-01T16:41:45.573Z,16.57
2018-11-01T16:44:14.009Z,21.67
2018-11-01T16:46:42.640Z,19.17
2018-11-01T16:49:11.372Z,20.50
2018-11-01T16:51:39.894Z,20.00
2018-11-01T16:54:08.824Z,19.33
2018-11-01T16:56:37.374Z,18.43
2018-11-01T16:59:06.665Z,15.13
2018-11-01T17:01:35.174Z,16.97
2018-11-01T17:04:03.631Z,15.83
2018-11-01T17:06:32.089Z,15.80
2018-11-01T17:09:00.884Z,14.17
2018-11-01T17:11:29.297Z,13.50
2018-11-01T17:13:57.751Z,13.10
2018-11-01T17:16:26.315Z,16.30
2018-11-01T17:18:55.441Z,16.20
2018-11-01T17:21:23.963Z,15.23
2018-11-01T17:23:52.425Z,14.10
2018-11-01T17:26:20.890Z,13.47
2018-11-01T17:28:49.411Z,17.13
2018-11-01T17:31:17.898Z,13.43
2018-11-01T17:33:46.477Z,14.07
2018-11-01T17:36:14.922Z,10.83
2018-11-01T17:38:43.389Z,10.17
2018-11-01T17:41:12.262Z,22.50
2018-11-01T17:43:41.247Z,22.77
2018-11-01T17:46:10.066Z,18.23
2018-11-01T17:48:39.170Z,16.43
2018-11-01T17:51:07.677Z,18.23
2018-11-01T17:53:37.503Z,16.50
2018-11-01T17:56:06.095Z,12.43
2018-11-01T17:58:35.504Z,12.07
2018-11-01T18:01:04.329Z,11.23
2018-11-01T18:03:32.793Z,11.73
2018-11-01T18:06:01.291Z,10.90
2018-11-01T18:08:30.572Z,9.87
2018-11-01T18:10:58.980Z,10.47
2018-11-01T18:13:27.406Z,25.47
2018-11-01T18:15:55.901Z,15.97
2018-11-01T18:18:24.391Z,14.47
2018-11-01T18:20:53.804Z,17.10
2018-11-01T18:23:22.580Z,17.20
2018-11-01T18:25:51.409Z,15.97
2018-11-01T18:28:20.610Z,16.70
2018-11-01T18:30:49.069Z,14.00
2018-11-01T18:33:17.646Z,14.67
2018-11-01T18:35:47.022Z,15.33
2018-11-01T18:38:15.499Z,18.97
2018-11-01T18:40:43.956Z,22.23
2018-11-01T18:43:12.409Z,21.20
2018-11-01T18:45:40.872Z,16.83
2018-11-01T18:48:09.387Z,15.77
2018-11-01T18:50:38.474Z,15.63
2018-11-01T18:53:07.717Z,14.87
2018-11-01T18:55:36.247Z,14.30
2018-11-01T18:58:05.544Z,12.90
2018-11-01T19:00:34.033Z,13.80
2018-11-01T19:03:02.487Z,17.37
2018-11-01T19:05:31.027Z,16.03
2018-11-01T19:07:59.483Z,15.77
2018-11-01T19:10:28.029Z,15.23
2018-11-01T19:12:56.961Z,14.13
2018-11-01T19:15:25.495Z,13.07
2018-11-01T19:17:54.013Z,13.07
2018-11-01T19:20:22.580Z,13.00
2018-11-01T19:22:51.109Z,13.40
2018-11-01T19:25:19.654Z,14.77
2018-11-01T19:27:48.165Z,18.37
2018-11-01T19:30:16.670Z,18.63
2018-11-01T19:32:45.211Z,15.53
2018-11-01T19:35:14.369Z,16.10
2018-11-01T19:37:42.849Z,17.00
2018-11-01T19:40:13.685Z,17.43
2018-11-01T19:42:42.497Z,15.00
2018-11-01T19:45:11.839Z,15.87
2018-11-01T19:47:40.381Z,18.90
2018-11-01T19:50:10.833Z,22.17
2018-11-01T19:52:39.341Z,54.20
2018-11-01T19:55:08.556Z,43.03
2018-11-01T19:57:37.145Z,40.40
2018-11-01T20:00:07.640Z,41.97
2018-11-01T20:02:36.195Z,26.73
2018-11-01T20:05:04.883Z,24.73
2018-11-01T20:07:36.186Z,22.03
2018-11-01T20:10:05.078Z,24.23
2018-11-01T20:12:33.547Z,18.23
2018-11-01T20:15:02.029Z,27.60
2018-11-01T20:17:30.606Z,25.97
2018-11-01T20:19:59.165Z,16.83
2018-11-01T20:22:27.641Z,18.37
2018-11-01T20:24:56.746Z,19.17
2018-11-01T20:27:25.572Z,14.47
2018-11-01T20:29:54.105Z,9.87
2018-11-01T20:32:22.597Z,8.83
2018-11-01T20:34:51.325Z,9.57
2018-11-01T20:37:19.843Z,11.50
2018-11-01T20:39:48.376Z,9.90
2018-11-01T20:42:16.841Z,5.30
2018-11-01T20:44:46.054Z,4.47
2018-11-01T20:47:14.539Z,4.73
2018-11-01T20:49:43.028Z,3.33
2018-11-01T20:52:11.516Z,2.70
2018-11-01T20:54:40.029Z,2.70
2018-11-01T20:57:09.267Z,2.00
2018-11-01T20:59:37.724Z,2.00
2018-11-01T21:02:06.298Z,1.63
2018-11-01T21:04:34.836Z,1.50
2018-11-01T21:07:03.356Z,1.60
2018-11-01T21:09:31.891Z,1.77
2018-11-01T21:12:00.513Z,1.30
2018-11-01T21:14:28.864Z,1.40
2018-11-01T21:16:57.473Z,1.30
2018-11-01T21:19:26.697Z,1.30
2018-11-01T21:21:55.241Z,1.50
2018-11-01T21:24:26.150Z,2.10
2018-11-01T21:26:55.622Z,1.30
2018-11-01T21:29:24.115Z,1.50
2018-11-01T21:31:52.651Z,1.73
2018-11-01T21:34:21.092Z,2.00
2018-11-01T21:36:49.604Z,1.40
2018-11-01T21:39:18.943Z,1.30
2018-11-01T21:41:47.497Z,1.30
2018-11-01T21:44:15.944Z,1.60
2018-11-01T21:46:45.403Z,1.27
2018-11-01T21:49:13.924Z,1.60
2018-11-01T21:51:42.404Z,1.30
2018-11-01T21:54:10.857Z,1.30
2018-11-01T21:56:39.418Z,1.50
2018-11-01T21:59:07.843Z,2.47
2018-11-01T22:01:36.448Z,2.00
2018-11-01T22:04:05.316Z,1.60
2018-11-01T22:06:33.801Z,1.30
2018-11-01T22:09:02.480Z,1.50
2018-11-01T22:11:30.968Z,2.47
2018-11-01T22:13:59.476Z,2.20
2018-11-01T22:16:28.657Z,1.90
2018-11-01T22:18:57.219Z,1.97
2018-11-01T22:21:26.492Z,2.30
2018-11-01T22:23:54.995Z,2.07
2018-11-01T22:26:23.592Z,1.63
2018-11-01T22:28:52.096Z,1.80
2018-11-01T22:31:21.343Z,1.50
2018-11-01T22:33:50.372Z,3.80
2018-11-01T22:36:18.791Z,4.63
2018-11-01T22:38:47.442Z,4.27
2018-11-01T22:41:15.772Z,2.90
2018-11-01T22:43:44.260Z,2.50
2018-11-01T22:46:12.725Z,2.50
2018-11-01T22:48:41.304Z,2.10
2018-11-01T22:51:09.736Z,2.27
2018-11-01T22:53:38.265Z,2.10
2018-11-01T22:56:07.529Z,1.90
2018-11-01T22:58:36.449Z,2.00
2018-11-01T23:01:05.433Z,2.10
2018-11-01T23:03:34.080Z,2.33
2018-11-01T23:06:02.543Z,2.40
2018-11-01T23:08:31.005Z,2.10
2018-11-01T23:10:59.464Z,2.17
2018-11-01T23:13:28.001Z,2.80
2018-11-01T23:15:56.514Z,2.70
2018-11-01T23:18:26.000Z,2.50
2018-11-01T23:20:54.515Z,2.53
2018-11-01T23:23:24.733Z,2.20
2018-11-01T23:25:53.284Z,2.17
2018-11-01T23:28:22.046Z,2.23
2018-11-01T23:30:50.493Z,2.10
2018-11-01T23:33:19.590Z,2.00
2018-11-01T23:35:48.104Z,2.07
2018-11-01T23:38:21.898Z,2.00
2018-11-01T23:40:56.256Z,2.50
2018-11-01T23:43:30.381Z,1.87
2018-11-01T23:46:04.222Z,2.10
2018-11-01T23:48:34.148Z,2.00
2018-11-01T23:51:19.155Z,2.23
2018-11-01T23:53:49.816Z,2.30
2018-11-01T23:56:18.862Z,2.43
2018-11-01T23:58:47.469Z,2.87
